Time;durP1;ratioP1;P1;durP2;ratioP2;P2;SDS_P1;SDS_P2;PMS_P1;PMS_P2;Temp;Humidity;BMP_temperature;BMP_pressure;BME280_temperature;BME280_humidity;BME280_pressure;Samples;Min_cycle;Max_cycle;Signal;HPM_P1;HPM_P2
2022/08/04 00:01:23;;;;;;;5.93;2.83;;;19.30;99.90;;;;;;4942079;28;20322;-77
2022/08/04 00:03:57;;;;;;;4.50;2.80;;;19.30;99.90;;;;;;4937844;29;20243;-77
2022/08/04 00:06:37;;;;;;;6.27;2.80;;;19.20;99.90;;;;;;4938196;29;20254;-77
2022/08/04 00:09:13;;;;;;;4.43;2.87;;;19.30;99.90;;;;;;4938440;29;20267;-77
2022/08/04 00:11:45;;;;;;;3.87;2.60;;;19.30;99.90;;;;;;4938063;29;20234;-76
2022/08/04 00:14:15;;;;;;;5.17;2.83;;;19.30;99.90;;;;;;4938177;29;20214;-77
2022/08/04 00:16:43;;;;;;;6.13;3.00;;;19.20;99.90;;;;;;4938060;29;20303;-77
2022/08/04 00:19:26;;;;;;;6.27;3.00;;;19.30;99.90;;;;;;4937841;29;20664;-77
2022/08/04 00:21:59;;;;;;;5.87;3.10;;;19.30;99.90;;;;;;4937904;29;20307;-77
2022/08/04 00:24:29;;;;;;;6.10;3.20;;;19.20;99.90;;;;;;4937748;29;20672;-77
2022/08/04 00:26:56;;;;;;;4.73;2.70;;;19.20;99.90;;;;;;4937516;29;20235;-77
2022/08/04 00:29:25;;;;;;;4.53;2.90;;;19.20;99.90;;;;;;4937237;29;20232;-77
2022/08/04 00:31:52;;;;;;;6.13;2.90;;;19.20;99.90;;;;;;4937809;29;20243;-77
2022/08/04 00:34:23;;;;;;;5.73;3.13;;;19.20;99.90;;;;;;4937894;29;20296;-76
2022/08/04 00:36:51;;;;;;;4.57;3.03;;;19.20;99.90;;;;;;4937700;29;20239;-77
2022/08/04 00:39:18;;;;;;;4.60;2.80;;;19.20;99.90;;;;;;4937542;29;20307;-77
2022/08/04 00:41:57;;;;;;;3.87;2.60;;;19.30;99.90;;;;;;4937415;29;20235;-77
2022/08/04 00:44:33;;;;;;;5.90;2.97;;;19.20;99.90;;;;;;4937558;29;20318;-74
2022/08/04 00:47:33;;;;;;;4.87;2.40;;;19.20;99.90;;;;;;4936327;29;20649;-74
2022/08/04 00:50:08;;;;;;;4.87;2.60;;;19.30;99.90;;;;;;4897135;29;20383;-77
2022/08/04 00:52:54;;;;;;;5.27;3.03;;;19.40;99.90;;;;;;4897038;29;20205;-77
2022/08/04 00:55:42;;;;;;;4.60;3.00;;;19.40;99.90;;;;;;4896898;29;20640;-77
2022/08/04 00:58:29;;;;;;;5.77;3.23;;;19.40;99.90;;;;;;4897111;29;20258;-77
2022/08/04 01:01:01;;;;;;;4.57;2.70;;;19.40;99.90;;;;;;4908055;29;20323;-74
2022/08/04 01:03:49;;;;;;;4.80;2.80;;;19.40;99.90;;;;;;4915548;29;20210;-74
2022/08/04 01:06:28;;;;;;;5.83;2.80;;;19.40;99.90;;;;;;4915798;29;20243;-74
2022/08/04 01:09:19;;;;;;;5.00;2.37;;;19.40;99.90;;;;;;4915388;29;20859;-77
2022/08/04 01:12:03;;;;;;;6.93;3.10;;;19.40;99.90;;;;;;4914800;29;20240;-77
2022/08/04 01:14:47;;;;;;;4.97;2.87;;;19.40;99.90;;;;;;4915731;29;20333;-76
2022/08/04 01:17:20;;;;;;;5.20;3.30;;;19.30;99.90;;;;;;4915619;29;20300;-77
2022/08/04 01:20:01;;;;;;;5.37;2.80;;;19.40;99.90;;;;;;4915708;29;20208;-77
2022/08/04 01:23:13;;;;;;;5.23;2.60;;;19.40;99.90;;;;;;4915436;29;20204;-77
2022/08/04 01:26:16;;;;;;;4.03;2.50;;;19.40;99.90;;;;;;4891142;29;20291;-77
2022/08/04 01:29:05;;;;;;;5.20;2.67;;;19.50;99.90;;;;;;4915115;29;20311;-77
2022/08/04 01:31:41;;;;;;;5.07;2.33;;;19.50;99.90;;;;;;4915225;29;20324;-77
2022/08/04 01:34:12;;;;;;;3.40;2.13;;;19.50;99.90;;;;;;4915476;29;20236;-76
2022/08/04 01:36:45;;;;;;;5.23;2.40;;;19.50;99.90;;;;;;4915442;29;20264;-77
2022/08/04 01:41:59;;;;;;;4.50;2.80;;;19.50;99.90;;;;;;4915239;29;20199;-77
2022/08/04 01:44:30;;;;;;;3.07;2.23;;;19.40;99.90;;;;;;4915018;29;20673;-77
2022/08/04 01:47:00;;;;;;;6.23;2.90;;;19.40;99.90;;;;;;4915201;29;20720;-77
2022/08/04 01:49:30;;;;;;;6.67;3.10;;;19.50;99.90;;;;;;4914790;29;20235;-77
2022/08/04 01:51:57;;;;;;;5.33;2.50;;;19.50;99.90;;;;;;4914973;29;20244;-77
2022/08/04 01:54:26;;;;;;;3.93;2.60;;;19.40;99.90;;;;;;4914639;29;20290;-77
2022/08/04 01:56:55;;;;;;;3.97;2.60;;;19.40;99.90;;;;;;4914813;29;20622;-77
2022/08/04 01:59:23;;;;;;;5.03;2.47;;;19.40;99.90;;;;;;4914388;29;20227;-77
2022/08/04 02:01:51;;;;;;;4.10;2.95;;;19.50;99.90;;;;;;4914677;29;20304;-77
2022/08/04 02:04:20;;;;;;;5.47;3.17;;;19.40;99.90;;;;;;4914933;29;20204;-77
2022/08/04 02:06:56;;;;;;;4.63;3.27;;;19.40;99.90;;;;;;4935400;29;20692;-77
2022/08/04 02:09:29;;;;;;;4.03;3.50;;;19.50;99.90;;;;;;4935913;29;20231;-77
2022/08/04 02:12:05;;;;;;;4.60;3.40;;;19.30;99.90;;;;;;4936581;29;20239;-77
2022/08/04 02:14:44;;;;;;;4.87;3.40;;;19.20;99.90;;;;;;4935907;29;20207;-77
2022/08/04 02:17:15;;;;;;;5.93;3.80;;;19.10;99.90;;;;;;4935841;29;20208;-77
2022/08/04 02:19:57;;;;;;;5.10;3.03;;;19.10;99.90;;;;;;4936011;29;20704;-77
2022/08/04 02:22:27;;;;;;;4.10;2.87;;;19.00;99.90;;;;;;4935480;29;20243;-74
2022/08/04 02:25:03;;;;;;;4.10;2.70;;;19.00;99.90;;;;;;4935817;29;20263;-76
2022/08/04 02:27:40;;;;;;;3.63;2.53;;;18.90;99.90;;;;;;4935282;29;20294;-74
2022/08/04 02:30:08;;;;;;;2.87;2.03;;;18.90;99.90;;;;;;4935234;29;20323;-74
2022/08/04 02:32:38;;;;;;;2.20;1.87;;;19.00;99.90;;;;;;4935384;29;20235;-74
2022/08/04 02:35:08;;;;;;;1.97;1.30;;;19.00;99.90;;;;;;4935231;29;20294;-74
2022/08/04 02:37:35;;;;;;;3.43;1.70;;;19.00;99.90;;;;;;4935103;29;20212;-74
2022/08/04 02:40:06;;;;;;;1.90;1.20;;;19.00;99.90;;;;;;4935080;29;20247;-74
2022/08/04 02:42:34;;;;;;;2.37;1.40;;;19.00;99.90;;;;;;4935028;29;20345;-74
2022/08/04 02:45:02;;;;;;;1.73;1.10;;;19.00;99.90;;;;;;4935257;29;20681;-74
2022/08/04 02:47:30;;;;;;;2.00;1.10;;;19.00;99.90;;;;;;4935535;29;20246;-74
2022/08/04 02:49:58;;;;;;;1.87;1.23;;;18.90;99.90;;;;;;4935192;29;20319;-74
2022/08/04 02:52:26;;;;;;;1.73;1.20;;;18.90;99.90;;;;;;4935219;29;20240;-74
2022/08/04 02:54:56;;;;;;;1.30;1.07;;;18.90;99.90;;;;;;4935024;29;20203;-74
2022/08/04 02:57:24;;;;;;;1.93;1.50;;;18.90;99.90;;;;;;4934986;29;20259;-74
2022/08/04 03:00:05;;;;;;;1.40;1.27;;;18.90;99.90;;;;;;4938437;29;20231;-74
2022/08/04 03:02:48;;;;;;;2.00;1.73;;;18.90;99.90;;;;;;4954253;28;20203;-74
2022/08/04 03:05:18;;;;;;;2.83;1.70;;;18.90;99.90;;;;;;4954210;28;20294;-74
2022/08/04 03:08:07;;;;;;;2.33;1.40;;;18.90;99.90;;;;;;4954031;29;20249;-74
2022/08/04 03:11:26;;;;;;;2.27;1.53;;;18.90;99.90;;;;;;4956067;28;20227;-74
2022/08/04 03:14:18;;;;;;;1.93;1.50;;;18.90;99.90;;;;;;4957946;28;20235;-74
2022/08/04 03:17:22;;;;;;;1.80;1.40;;;18.80;99.90;;;;;;4973736;28;20285;-74
2022/08/04 03:20:28;;;;;;;1.93;1.37;;;18.80;99.90;;;;;;4977314;28;20233;-74
2022/08/04 03:23:29;;;;;;;1.70;1.60;;;18.90;99.90;;;;;;4977170;28;20241;-74
2022/08/04 03:26:40;;;;;;;2.10;1.20;;;18.90;99.90;;;;;;4917182;29;20287;-74
2022/08/04 03:29:39;;;;;;;2.37;1.60;;;18.90;99.90;;;;;;4915688;29;20341;-74
2022/08/04 03:32:30;;;;;;;2.43;1.33;;;18.80;99.90;;;;;;4916787;29;20240;-74
2022/08/04 03:35:22;;;;;;;1.60;1.30;;;18.90;99.90;;;;;;4916984;29;20247;-74
2022/08/04 03:38:11;;;;;;;2.17;1.57;;;18.90;99.90;;;;;;4916388;29;20671;-74
2022/08/04 03:40:55;;;;;;;1.43;1.20;;;18.80;99.90;;;;;;4899933;29;20253;-74
2022/08/04 03:43:49;;;;;;;1.30;0.93;;;18.80;99.90;;;;;;4898191;29;20232;-74
2022/08/04 03:46:58;;;;;;;1.67;1.30;;;18.70;99.90;;;;;;4898353;29;20321;-74
2022/08/04 03:49:45;;;;;;;1.63;1.17;;;18.70;99.90;;;;;;4896661;29;20268;-74
2022/08/04 03:55:39;;;;;;;0.83;0.80;;;18.70;99.90;;;;;;4889831;29;20197;-74
2022/08/04 03:58:43;;;;;;;1.20;0.90;;;18.70;99.90;;;;;;4897695;29;20289;-74
2022/08/04 04:01:35;;;;;;;0.90;0.77;;;18.60;99.90;;;;;;4910941;29;20347;-74
2022/08/04 04:04:36;;;;;;;1.47;0.70;;;18.70;99.90;;;;;;4956953;29;20589;-74
2022/08/04 04:07:55;;;;;;;1.50;0.97;;;18.70;99.90;;;;;;4956957;29;20742;-74
2022/08/04 04:10:41;;;;;;;1.20;0.90;;;18.60;99.90;;;;;;4957113;29;20313;-74
2022/08/04 04:13:34;;;;;;;1.40;0.90;;;18.60;99.90;;;;;;4957116;29;20581;-74
2022/08/04 04:16:23;;;;;;;1.63;1.30;;;18.60;99.90;;;;;;4957022;29;20294;-74
2022/08/04 04:19:14;;;;;;;3.93;1.93;;;18.60;99.90;;;;;;4956530;28;20235;-74
2022/08/04 04:21:58;;;;;;;2.90;1.80;;;18.60;99.90;;;;;;4955479;28;20239;-74
2022/08/04 04:24:46;;;;;;;2.47;2.07;;;18.50;99.90;;;;;;4956873;29;20234;-74
2022/08/04 04:27:32;;;;;;;3.30;2.60;;;18.50;99.90;;;;;;4956709;28;20608;-74
2022/08/04 04:30:06;;;;;;;4.57;3.00;;;18.50;99.90;;;;;;4956598;28;20322;-74
2022/08/04 04:32:52;;;;;;;4.60;4.00;;;18.60;99.90;;;;;;4956508;28;20687;-75
2022/08/04 04:35:30;;;;;;;4.23;3.27;;;18.50;99.90;;;;;;4956565;29;20290;-74
2022/08/04 04:38:11;;;;;;;5.67;3.77;;;18.50;99.90;;;;;;4956365;29;20202;-74
2022/08/04 04:40:50;;;;;;;4.30;3.60;;;18.50;99.90;;;;;;4956338;28;20242;-74
2022/08/04 04:43:41;;;;;;;4.90;3.70;;;18.50;99.90;;;;;;4956543;29;20210;-74
2022/08/04 04:46:15;;;;;;;6.13;4.47;;;18.60;99.90;;;;;;4956451;29;20231;-74
2022/08/04 04:48:48;;;;;;;4.50;3.90;;;18.50;99.90;;;;;;4955817;29;20226;-74
2022/08/04 04:51:20;;;;;;;6.00;4.33;;;18.50;99.90;;;;;;4955986;29;20238;-74
2022/08/04 04:53:56;;;;;;;5.23;4.43;;;18.50;99.90;;;;;;4956098;29;20207;-74
2022/08/04 04:56:28;;;;;;;5.73;4.43;;;18.50;99.90;;;;;;4956159;29;20225;-74
2022/08/04 04:58:58;;;;;;;5.00;4.10;;;18.50;99.90;;;;;;4955801;29;20223;-74
2022/08/04 05:01:57;;;;;;;6.07;4.20;;;18.50;99.90;;;;;;4955767;28;20277;-74
2022/08/04 05:05:02;;;;;;;8.33;4.90;;;18.40;99.90;;;;;;4956286;29;20234;-74
2022/08/04 05:08:01;;;;;;;4.63;3.83;;;18.50;99.90;;;;;;4955958;29;20242;-74
2022/08/04 05:10:46;;;;;;;4.93;4.00;;;18.50;99.90;;;;;;4915311;29;20257;-74
2022/08/04 05:13:33;;;;;;;5.10;3.40;;;18.50;99.90;;;;;;4915386;29;20240;-74
2022/08/04 05:16:09;;;;;;;5.27;3.43;;;18.50;99.90;;;;;;4915280;29;20235;-74
2022/08/04 05:18:40;;;;;;;5.30;3.77;;;18.50;99.90;;;;;;4915091;29;20243;-74
2022/08/04 05:21:20;;;;;;;5.83;3.40;;;18.50;99.90;;;;;;4915411;29;20254;-74
2022/08/04 05:23:53;;;;;;;3.80;3.17;;;18.50;99.90;;;;;;4915465;29;20587;-74
2022/08/04 05:26:26;;;;;;;6.50;3.37;;;18.60;99.90;;;;;;4915339;29;20240;-74
2022/08/04 05:28:57;;;;;;;5.90;3.50;;;18.60;99.90;;;;;;4915196;29;20319;-74
2022/08/04 05:31:33;;;;;;;7.13;3.80;;;18.60;99.90;;;;;;4914833;29;20291;-74
2022/08/04 05:34:05;;;;;;;6.27;2.90;;;18.70;99.90;;;;;;4914614;29;20319;-74
2022/08/04 05:36:37;;;;;;;5.27;3.40;;;18.70;99.90;;;;;;4915147;29;20208;-74
2022/08/04 05:39:07;;;;;;;4.60;3.57;;;18.60;99.90;;;;;;4915052;29;20229;-74
2022/08/04 05:41:35;;;;;;;6.13;3.37;;;18.70;99.90;;;;;;4914837;29;20266;-74
2022/08/04 05:44:03;;;;;;;4.00;2.83;;;18.70;99.90;;;;;;4914718;29;20292;-74
2022/08/04 05:46:31;;;;;;;4.13;2.43;;;18.70;99.90;;;;;;4918981;29;20335;-74
2022/08/04 05:48:58;;;;;;;3.83;2.77;;;18.70;99.90;;;;;;4955121;29;20722;-74
2022/08/04 05:51:27;;;;;;;4.07;2.80;;;18.70;99.90;;;;;;4955202;29;20686;-74
2022/08/04 05:53:55;;;;;;;4.77;2.33;;;18.70;99.90;;;;;;4955288;29;20207;-74
2022/08/04 05:56:23;;;;;;;4.90;2.60;;;18.90;99.90;;;;;;4954834;28;20238;-74
2022/08/04 05:58:52;;;;;;;2.67;2.47;;;18.90;99.90;;;;;;4955133;29;20266;-74
2022/08/04 06:01:20;;;;;;;3.47;2.50;;;18.90;99.90;;;;;;4954417;28;20276;-74
2022/08/04 06:03:49;;;;;;;4.70;2.70;;;19.00;99.90;;;;;;4954812;29;20211;-74
2022/08/04 06:06:18;;;;;;;5.57;2.80;;;19.10;99.90;;;;;;4954681;29;20199;-74
2022/08/04 06:08:45;;;;;;;5.10;2.63;;;19.20;99.90;;;;;;4954873;29;20294;-74
2022/08/04 06:11:14;;;;;;;3.97;2.57;;;19.20;99.90;;;;;;4954710;29;20286;-74
2022/08/04 06:13:47;;;;;;;5.77;2.50;;;19.30;99.90;;;;;;4954599;29;20239;-74
2022/08/04 06:16:16;;;;;;;4.60;2.70;;;19.30;99.90;;;;;;4954618;28;20242;-74
2022/08/04 06:18:45;;;;;;;6.30;2.97;;;19.30;99.90;;;;;;4972581;28;20249;-74
2022/08/04 06:21:18;;;;;;;4.40;2.60;;;19.30;99.90;;;;;;4973834;28;20237;-74
2022/08/04 06:23:45;;;;;;;4.83;2.90;;;19.30;99.90;;;;;;4974175;28;20198;-74
2022/08/04 06:26:18;;;;;;;3.70;2.70;;;19.30;99.90;;;;;;4973948;28;20244;-74
2022/08/04 06:28:47;;;;;;;4.77;2.73;;;19.20;99.90;;;;;;4973739;28;20214;-74
2022/08/04 06:31:20;;;;;;;4.00;3.10;;;19.10;99.90;;;;;;4973578;28;20226;-74
2022/08/04 06:33:51;;;;;;;3.77;2.60;;;19.10;99.90;;;;;;4973725;28;20207;-74
2022/08/04 06:36:19;;;;;;;3.77;2.50;;;19.10;99.90;;;;;;4973634;28;20209;-74
2022/08/04 06:38:47;;;;;;;8.17;3.10;;;19.20;99.90;;;;;;4973625;28;20242;-74
2022/08/04 06:41:14;;;;;;;7.23;2.90;;;19.30;99.90;;;;;;4968447;28;20731;-74
2022/08/04 06:43:41;;;;;;;3.90;2.93;;;19.40;99.90;;;;;;4953826;29;20254;-74
2022/08/04 06:46:09;;;;;;;3.65;2.60;;;20.30;99.90;;;;;;4957018;28;20289;-74
2022/08/04 06:48:37;;;;;;;3.47;1.98;;;22.20;99.90;;;;;;4958215;29;20238;-74
2022/08/04 06:51:05;;;;;;;4.72;2.40;;;23.70;99.90;;;;;;4958308;28;20318;-74
2022/08/04 06:53:34;;;;;;;6.10;2.50;;;23.50;99.90;;;;;;4958147;29;20207;-74
2022/08/04 06:56:02;;;;;;;4.55;2.15;;;23.60;99.90;;;;;;4958560;29;20206;-74
2022/08/04 06:58:31;;;;;;;6.35;2.60;;;24.00;99.90;;;;;;4957561;29;20286;-74
2022/08/04 07:01:00;;;;;;;7.95;2.15;;;25.30;99.90;;;;;;4958037;29;20726;-74
2022/08/04 07:03:28;;;;;;;5.85;1.92;;;25.60;99.90;;;;;;4957890;29;20203;-74
2022/08/04 07:05:55;;;;;;;3.88;2.03;;;25.50;99.90;;;;;;4958331;29;20230;-74
2022/08/04 07:08:23;;;;;;;4.40;1.98;;;25.60;99.90;;;;;;4957910;28;20297;-74
2022/08/04 07:10:53;;;;;;;4.78;2.08;;;25.10;99.90;;;;;;4958020;28;20262;-75
2022/08/04 07:13:22;;;;;;;3.60;1.67;;;25.70;99.90;;;;;;4957609;28;20207;-74
2022/08/04 07:15:49;;;;;;;3.17;1.55;;;26.10;99.90;;;;;;4958129;29;20273;-74
2022/08/04 07:18:16;;;;;;;6.88;2.00;;;26.00;99.90;;;;;;4966110;28;20234;-75
2022/08/04 07:20:45;;;;;;;10.70;1.70;;;26.20;99.90;;;;;;4977130;28;20206;-75
2022/08/04 07:23:16;;;;;;;4.20;1.92;;;26.70;99.90;;;;;;4977141;28;20233;-75
2022/08/04 07:25:44;;;;;;;3.53;1.83;;;26.10;99.90;;;;;;4977021;28;20297;-75
2022/08/04 07:28:13;;;;;;;7.00;1.83;;;26.30;99.90;;;;;;4977073;28;20210;-75
2022/08/04 07:30:43;;;;;;;4.28;1.77;;;27.20;99.90;;;;;;4976796;28;20257;-75
2022/08/04 07:33:11;;;;;;;3.55;1.92;;;26.80;99.90;;;;;;4977162;28;20238;-75
2022/08/04 07:35:39;;;;;;;3.47;1.90;;;26.70;99.90;;;;;;4976820;28;20285;-75
2022/08/04 07:38:06;;;;;;;3.63;1.70;;;26.50;99.90;;;;;;4977076;28;20784;-74
2022/08/04 07:40:35;;;;;;;3.00;1.40;;;26.80;99.90;;;;;;4976725;28;20207;-75
2022/08/04 07:43:03;;;;;;;2.75;1.55;;;27.00;99.90;;;;;;4966822;28;20250;-75
2022/08/04 07:45:32;;;;;;;5.38;1.70;;;26.90;99.90;;;;;;4957418;29;20290;-75
2022/08/04 07:48:00;;;;;;;4.90;1.55;;;26.30;99.90;;;;;;4957524;28;20633;-74
2022/08/04 07:50:28;;;;;;;4.32;2.10;;;25.70;99.90;;;;;;4957327;28;20313;-75
2022/08/04 07:52:56;;;;;;;8.88;1.98;;;26.70;99.90;;;;;;4957293;29;20727;-75
2022/08/04 07:55:24;;;;;;;5.15;1.88;;;27.70;99.90;;;;;;4957329;28;20211;-75
2022/08/04 07:57:50;;;;;;;2.55;1.67;;;27.10;99.90;;;;;;4956745;29;20258;-75
2022/08/04 08:00:18;;;;;;;3.90;1.85;;;26.40;99.90;;;;;;4957084;29;20270;-78
2022/08/04 08:02:49;;;;;;;3.58;1.58;;;26.30;99.90;;;;;;4957401;29;20207;-78
2022/08/04 08:05:19;;;;;;;4.07;1.60;;;26.60;99.90;;;;;;4957682;29;20292;-78
2022/08/04 08:07:47;;;;;;;10.43;2.20;;;27.30;99.90;;;;;;4957199;29;20330;-78
2022/08/04 08:10:15;;;;;;;5.78;1.90;;;27.30;99.90;;;;;;4956851;29;20230;-79
2022/08/04 08:12:42;;;;;;;4.25;1.83;;;27.60;99.90;;;;;;4956950;28;20207;-78
2022/08/04 08:15:11;;;;;;;5.47;2.03;;;27.80;99.90;;;;;;4956996;29;20207;-76
2022/08/04 08:17:39;;;;;;;14.68;2.20;;;28.50;99.90;;;;;;4957575;28;20251;-74
2022/08/04 08:20:10;;;;;;;9.25;2.10;;;28.80;99.90;;;;;;4975983;28;20749;-73
2022/08/04 08:22:38;;;;;;;7.22;1.95;;;28.20;99.90;;;;;;4975947;28;20242;-75
2022/08/04 08:25:06;;;;;;;7.07;2.08;;;28.70;99.90;;;;;;4975635;28;20291;-75
2022/08/04 08:27:33;;;;;;;7.97;1.73;;;29.00;99.90;;;;;;4959132;28;20290;-75
2022/08/04 08:30:00;;;;;;;3.83;1.88;;;29.40;99.90;;;;;;4975885;28;20288;-75
2022/08/04 08:32:27;;;;;;;4.72;1.80;;;29.40;99.90;;;;;;4975913;28;20238;-75
2022/08/04 08:34:54;;;;;;;4.30;1.65;;;28.70;99.90;;;;;;4975739;28;20678;-75
2022/08/04 08:37:30;;;;;;;2.17;1.30;;;28.90;99.90;;;;;;4975673;28;20302;-75
2022/08/04 08:40:08;;;;;;;4.20;1.77;;;27.80;99.90;;;;;;4975467;28;20198;-75
2022/08/04 08:43:14;;;;;;;4.15;1.70;;;28.10;99.90;;;;;;4969976;28;20270;-75
2022/08/04 08:46:04;;;;;;;4.30;1.88;;;27.70;99.90;;;;;;4936760;29;20207;-75
2022/08/04 08:49:02;;;;;;;6.60;1.95;;;27.60;99.90;;;;;;4956428;28;20253;-75
2022/08/04 08:51:44;;;;;;;5.78;1.88;;;27.70;99.90;;;;;;4956503;29;20223;-78
2022/08/04 08:54:44;;;;;;;7.40;1.77;;;27.60;99.90;;;;;;4956452;29;20615;-78
2022/08/04 08:57:39;;;;;;;8.48;2.30;;;28.20;99.90;;;;;;4955130;29;20243;-78
2022/08/04 09:00:15;;;;;;;4.18;2.10;;;27.90;99.90;;;;;;4956196;28;20334;-78
2022/08/04 09:03:27;;;;;;;4.60;1.70;;;27.80;99.90;;;;;;4956229;29;20199;-78
2022/08/04 09:06:18;;;;;;;5.28;2.10;;;27.60;99.90;;;;;;4956390;29;20199;-78
2022/08/04 09:09:11;;;;;;;3.13;1.63;;;27.90;99.90;;;;;;4914810;29;20741;-78
2022/08/04 09:11:43;;;;;;;5.20;2.08;;;28.60;99.90;;;;;;4907863;29;20697;-78
2022/08/04 09:14:21;;;;;;;6.63;2.35;;;28.60;99.90;;;;;;4915721;29;20200;-78
2022/08/04 09:16:55;;;;;;;2.90;1.77;;;29.20;99.90;;;;;;4916128;29;20200;-78
2022/08/04 09:19:30;;;;;;;4.38;1.73;;;30.10;99.90;;;;;;4915516;29;20208;-78
2022/08/04 09:22:03;;;;;;;2.35;1.80;;;29.10;99.90;;;;;;4915797;29;20283;-78
2022/08/04 09:24:45;;;;;;;2.83;1.80;;;28.30;99.90;;;;;;4915197;29;20287;-78
2022/08/04 09:27:16;;;;;;;6.85;2.15;;;28.90;99.90;;;;;;4915585;29;20246;-78
2022/08/04 09:29:52;;;;;;;5.88;1.98;;;29.50;99.90;;;;;;4915448;29;20251;-78
2022/08/04 09:32:30;;;;;;;6.05;1.88;;;29.90;99.90;;;;;;4915530;29;20362;-78
2022/08/04 09:35:06;;;;;;;4.35;1.90;;;30.20;99.90;;;;;;4915516;29;20211;-78
2022/08/04 09:37:40;;;;;;;5.65;2.22;;;29.40;99.90;;;;;;4915171;29;20208;-78
2022/08/04 09:40:19;;;;;;;4.63;1.95;;;29.90;99.90;;;;;;4915346;29;20299;-78
2022/08/04 09:42:57;;;;;;;4.47;1.80;;;29.20;99.90;;;;;;4915091;29;20243;-78
2022/08/04 09:45:33;;;;;;;5.55;2.25;;;30.40;99.90;;;;;;4927152;29;20290;-78
2022/08/04 09:48:06;;;;;;;3.38;1.98;;;30.80;98.20;;;;;;4955616;28;20238;-78
2022/08/04 09:50:37;;;;;;;3.45;2.00;;;29.60;97.20;;;;;;4955262;28;20726;-78
2022/08/04 09:53:18;;;;;;;4.00;1.70;;;29.10;99.90;;;;;;4955376;29;20286;-78
2022/08/04 09:55:55;;;;;;;3.85;1.65;;;30.40;96.70;;;;;;4955237;29;20242;-75
2022/08/04 09:58:37;;;;;;;2.88;1.45;;;31.20;84.90;;;;;;4955228;29;20590;-78
2022/08/04 10:01:09;;;;;;;2.55;1.70;;;31.50;73.70;;;;;;4954986;28;20246;-79
2022/08/04 10:03:41;;;;;;;4.55;1.85;;;31.20;69.70;;;;;;4955330;29;20238;-78
2022/08/04 10:06:28;;;;;;;4.57;1.95;;;30.70;69.90;;;;;;4955337;28;20306;-78
2022/08/04 10:09:03;;;;;;;2.85;1.48;;;31.00;77.20;;;;;;4954857;29;20241;-78
2022/08/04 10:11:43;;;;;;;2.60;1.70;;;30.50;74.40;;;;;;4954698;28;20720;-78
2022/08/04 10:14:15;;;;;;;2.95;1.45;;;30.40;63.90;;;;;;4955116;29;20254;-78
2022/08/04 10:16:54;;;;;;;2.25;1.42;;;30.60;62.30;;;;;;4955522;29;20255;-78
2022/08/04 10:19:26;;;;;;;5.15;1.70;;;30.50;64.40;;;;;;4954706;28;20206;-78
2022/08/04 10:22:05;;;;;;;3.17;1.50;;;31.30;57.60;;;;;;4954549;29;20286;-78
2022/08/04 10:24:42;;;;;;;4.40;1.27;;;29.20;60.80;;;;;;4954712;29;20298;-78
2022/08/04 10:27:16;;;;;;;2.33;1.58;;;29.20;69.70;;;;;;4954759;29;20233;-78
2022/08/04 10:29:45;;;;;;;3.10;1.40;;;30.30;60.80;;;;;;4954652;29;20299;-78
2022/08/04 10:32:18;;;;;;;4.00;1.40;;;29.90;55.40;;;;;;4954603;29;20230;-78
2022/08/04 10:34:59;;;;;;;3.58;1.30;;;29.70;60.50;;;;;;4954821;29;20302;-78
2022/08/04 10:37:30;;;;;;;2.95;1.30;;;28.80;61.70;;;;;;4954258;29;20290;-78
2022/08/04 10:43:00;;;;;;;3.80;1.27;;;30.80;49.30;;;;;;4954543;29;20319;-78
2022/08/04 10:45:34;;;;;;;3.00;1.52;;;30.20;50.00;;;;;;4954404;29;20232;-78
2022/08/04 10:48:12;;;;;;;2.47;1.33;;;30.30;42.30;;;;;;4954333;29;20218;-78
2022/08/04 10:50:48;;;;;;;4.28;1.50;;;31.10;32.00;;;;;;4953895;29;20226;-78
2022/08/04 10:53:20;;;;;;;6.03;1.83;;;31.60;32.40;;;;;;4954673;29;20226;-78
2022/08/04 10:55:53;;;;;;;3.10;1.13;;;31.50;24.20;;;;;;4954542;29;20289;-74
2022/08/04 10:58:26;;;;;;;2.58;1.50;;;31.50;28.40;;;;;;4954540;29;20263;-78
2022/08/04 11:00:56;;;;;;;3.33;1.55;;;31.90;31.30;;;;;;4954119;29;20242;-75
2022/08/04 11:03:33;;;;;;;2.22;1.10;;;32.50;17.90;;;;;;4954399;29;20209;-74
2022/08/04 11:06:02;;;;;;;2.95;1.30;;;32.80;12.10;;;;;;4954076;29;20238;-74
2022/08/04 11:08:34;;;;;;;4.38;1.25;;;31.70;20.20;;;;;;4954436;29;20251;-75
2022/08/04 11:11:09;;;;;;;2.10;1.50;;;31.90;16.60;;;;;;4954147;29;20231;-74
2022/08/04 11:13:44;;;;;;;2.30;1.40;;;31.80;26.10;;;;;;4954413;29;20293;-74
2022/08/04 11:16:19;;;;;;;1.95;1.23;;;31.80;23.80;;;;;;4954320;29;20207;-75
2022/08/04 11:18:58;;;;;;;2.88;1.33;;;31.80;29.90;;;;;;4958174;28;20213;-74
2022/08/04 11:21:32;;;;;;;3.03;1.30;;;31.90;20.00;;;;;;4973707;28;20277;-75
2022/08/04 11:24:04;;;;;;;1.35;1.17;;;32.00;27.30;;;;;;4973300;28;20249;-75
2022/08/04 11:26:41;;;;;;;2.50;1.27;;;31.90;23.60;;;;;;4973438;28;20294;-75
2022/08/04 11:29:17;;;;;;;2.38;1.30;;;32.10;24.30;;;;;;4973572;28;20233;-75
2022/08/04 11:31:48;;;;;;;2.78;1.48;;;32.90;21.70;;;;;;4974935;28;20225;-75
2022/08/04 11:34:20;;;;;;;2.33;1.38;;;33.10;14.20;;;;;;4976638;28;20236;-75
2022/08/04 11:36:53;;;;;;;3.40;1.42;;;30.90;33.60;;;;;;4976905;28;20203;-75
2022/08/04 11:39:28;;;;;;;4.07;1.48;;;29.70;47.40;;;;;;4976872;28;20628;-75
2022/08/04 11:42:01;;;;;;;3.47;1.40;;;28.90;66.80;;;;;;4976842;28;20198;-74
2022/08/04 11:44:34;;;;;;;4.55;1.30;;;29.90;60.20;;;;;;4970564;28;20687;-74
2022/08/04 11:47:06;;;;;;;2.72;1.13;;;30.20;57.40;;;;;;4957281;29;20242;-75
2022/08/04 11:49:41;;;;;;;3.78;1.40;;;31.90;38.10;;;;;;4957286;29;20239;-74
2022/08/04 11:52:10;;;;;;;2.90;1.30;;;32.10;38.90;;;;;;4956950;29;20237;-74
2022/08/04 11:54:38;;;;;;;2.65;1.13;;;32.80;27.90;;;;;;4957072;29;20294;-75
2022/08/04 11:57:05;;;;;;;3.75;1.40;;;32.90;27.60;;;;;;4957170;29;20238;-74
2022/08/04 11:59:35;;;;;;;2.78;1.45;;;33.20;17.00;;;;;;4956375;29;20691;-74
2022/08/04 12:02:32;;;;;;;3.15;1.15;;;33.70;14.80;;;;;;4936769;29;20524;-75
2022/08/04 12:05:03;;;;;;;1.52;1.10;;;32.90;18.40;;;;;;4937029;29;20212;-78
2022/08/04 12:07:41;;;;;;;3.60;1.33;;;32.70;15.70;;;;;;4936687;29;20206;-74
2022/08/04 12:10:19;;;;;;;1.90;1.20;;;31.90;25.30;;;;;;4937027;29;20348;-77
2022/08/04 12:12:53;;;;;;;2.92;1.13;;;31.40;28.70;;;;;;4936934;29;20263;-78
2022/08/04 12:15:24;;;;;;;5.55;1.40;;;31.10;35.10;;;;;;4936861;29;20204;-78
2022/08/04 12:18:01;;;;;;;2.38;1.10;;;31.60;32.20;;;;;;4936473;29;20376;-74
2022/08/04 12:20:34;;;;;;;2.75;1.17;;;30.10;49.90;;;;;;4944137;29;20320;-77
2022/08/04 12:23:06;;;;;;;3.50;1.13;;;32.60;41.30;;;;;;4955538;29;20207;-75
2022/08/04 12:25:40;;;;;;;2.75;1.10;;;33.70;16.80;;;;;;4955871;29;20278;-78
2022/08/04 12:28:16;;;;;;;3.00;1.30;;;31.70;24.00;;;;;;4956207;29;20237;-78
2022/08/04 12:30:49;;;;;;;2.00;1.05;;;30.70;42.50;;;;;;4955806;29;20270;-78
2022/08/04 12:33:35;;;;;;;3.00;1.02;;;31.20;37.10;;;;;;4955395;28;20242;-78
2022/08/04 12:36:15;;;;;;;3.85;1.02;;;32.90;20.00;;;;;;4955459;29;20677;-74
2022/08/04 12:38:50;;;;;;;3.90;1.25;;;32.10;14.30;;;;;;4955433;29;20210;-74
2022/08/04 12:41:22;;;;;;;3.47;1.10;;;30.70;37.50;;;;;;4955257;28;20199;-74
2022/08/04 12:43:50;;;;;;;2.97;1.10;;;31.10;34.90;;;;;;4953484;28;20255;-74
2022/08/04 12:46:22;;;;;;;3.53;1.50;;;31.00;38.90;;;;;;4935743;29;20264;-74
2022/08/04 12:48:50;;;;;;;3.65;1.40;;;31.70;36.10;;;;;;4936484;29;20360;-74
2022/08/04 12:51:21;;;;;;;1.98;1.10;;;31.00;36.60;;;;;;4936063;29;20311;-74
2022/08/04 12:53:51;;;;;;;2.28;1.20;;;30.60;45.30;;;;;;4936041;29;20228;-74
2022/08/04 12:56:25;;;;;;;2.15;1.20;;;30.40;48.60;;;;;;4936004;29;20752;-74
2022/08/04 12:59:00;;;;;;;3.78;1.00;;;31.10;40.20;;;;;;4936189;29;20669;-74
2022/08/04 13:01:28;;;;;;;2.00;1.00;;;32.50;34.70;;;;;;4905361;29;1359623;-74
2022/08/04 13:03:58;;;;;;;2.80;1.00;;;33.30;19.00;;;;;;4956168;28;20207;-74
2022/08/04 13:06:28;;;;;;;1.80;0.95;;;32.00;27.60;;;;;;4956033;29;20210;-75
2022/08/04 13:09:02;;;;;;;2.13;1.40;;;32.20;26.00;;;;;;4956049;29;20742;-74
2022/08/04 13:11:30;;;;;;;3.75;1.00;;;31.50;23.70;;;;;;4955917;29;20364;-74
2022/08/04 13:13:58;;;;;;;7.38;1.50;;;31.10;40.40;;;;;;4956055;29;20287;-74
2022/08/04 13:16:33;;;;;;;3.53;1.20;;;30.80;41.40;;;;;;4955339;29;20727;-74
2022/08/04 13:19:01;;;;;;;3.85;1.20;;;30.80;40.20;;;;;;4956040;29;20214;-74
2022/08/04 13:21:31;;;;;;;3.33;1.38;;;30.60;43.00;;;;;;4969333;28;20217;-74
2022/08/04 13:24:03;;;;;;;2.97;1.20;;;31.00;42.60;;;;;;4974831;28;20238;-74
2022/08/04 13:26:32;;;;;;;2.20;1.17;;;31.20;36.00;;;;;;4974908;28;20202;-74
2022/08/04 13:29:05;;;;;;;2.25;1.40;;;29.90;44.40;;;;;;4975031;28;20213;-73
2022/08/04 13:31:34;;;;;;;5.32;1.15;;;29.30;50.20;;;;;;4974457;28;20254;-74
2022/08/04 13:34:07;;;;;;;4.63;1.30;;;29.30;54.10;;;;;;4974750;28;20614;-74
2022/08/04 13:36:37;;;;;;;2.65;1.20;;;28.70;57.30;;;;;;4974729;28;20206;-74
2022/08/04 13:39:08;;;;;;;2.50;1.00;;;28.30;65.20;;;;;;4974998;28;20235;-74